Terminal Aerodrome Forecast
Issued by NWS

Home | Current Version | Previous Version | Text Only | Print | Product List | Glossary On
Versions: 1 2 3 4 5 6 7 8 9 10 11 12 13 14 15 16 17 18 19 20 21 22 23
000
FTUS43 KFGF 052320
TAFTVF
TAF
KTVF 052320Z 0600/0624 31010KT P6SM SCT040
      TEMPO 0600/0601 BKN015
     FM060400 35010KT 5SM HZ SCT040 SCT250
     FM061500 34016KT 5SM HZ SCT050
      AMD LTD TO CLD VIS AND WIND=

USA.gov is the U.S. government's official web portal to all federal, state and local government web resources and services.